createdAt,value
2019-04-07T00:02:09.232Z,16.30
2019-04-07T00:07:15.098Z,19.50
2019-04-07T00:12:20.352Z,14.50
2019-04-07T00:17:26.151Z,17.10
2019-04-07T00:22:31.474Z,16.05
2019-04-07T00:27:36.896Z,16.87
2019-04-07T00:32:42.785Z,14.50
2019-04-07T00:37:48.306Z,14.13
2019-04-07T00:42:53.553Z,14.83
2019-04-07T00:47:59.366Z,17.37
2019-04-07T00:53:05.445Z,16.63
2019-04-07T00:58:11.550Z,14.60
2019-04-07T01:03:18.263Z,15.57
2019-04-07T01:08:23.792Z,18.63
2019-04-07T01:13:29.705Z,15.72
2019-04-07T01:18:35.618Z,15.07
2019-04-07T01:23:41.489Z,17.65
2019-04-07T01:28:47.113Z,17.23
2019-04-07T01:33:53.132Z,18.47
2019-04-07T01:38:58.754Z,16.03
2019-04-07T01:44:10.185Z,13.77
2019-04-07T01:49:22.254Z,15.07
2019-04-07T01:54:38.423Z,15.00
2019-04-07T01:59:52.100Z,16.60
2019-04-07T02:05:05.551Z,16.87
2019-04-07T02:10:19.647Z,16.87
2019-04-07T02:15:31.864Z,18.30
2019-04-07T02:20:49.902Z,18.02
2019-04-07T02:26:03.585Z,18.87
2019-04-07T02:31:19.289Z,19.53
2019-04-07T02:36:32.213Z,18.97
2019-04-07T02:41:46.687Z,18.67
2019-04-07T02:46:58.821Z,18.83
2019-04-07T02:52:12.559Z,19.40
2019-04-07T02:57:24.757Z,19.13
2019-04-07T03:02:37.677Z,21.33
2019-04-07T03:07:50.355Z,19.90
2019-04-07T03:13:04.980Z,23.67
2019-04-07T03:18:20.174Z,20.47
2019-04-07T03:23:35.019Z,22.90
2019-04-07T03:28:50.244Z,21.77
2019-04-07T03:34:06.190Z,23.20
2019-04-07T03:39:20.663Z,20.83
2019-04-07T03:44:33.095Z,17.97
2019-04-07T03:49:46.222Z,18.77
2019-04-07T03:55:01.221Z,24.03
2019-04-07T04:00:21.934Z,21.43
2019-04-07T04:05:46.109Z,25.75
2019-04-07T04:11:00.485Z,21.53
2019-04-07T04:16:10.584Z,24.73
2019-04-07T04:21:16.414Z,20.83
2019-04-07T04:26:21.818Z,24.27
2019-04-07T04:31:27.392Z,19.52
2019-04-07T04:36:33.495Z,25.70
2019-04-07T04:41:38.846Z,23.03
2019-04-07T04:46:44.125Z,21.73
2019-04-07T04:51:50.124Z,23.03
2019-04-07T04:56:55.533Z,20.33
2019-04-07T05:02:01.136Z,23.10
2019-04-07T05:07:06.615Z,26.67
2019-04-07T05:12:11.875Z,26.00
2019-04-07T05:17:17.373Z,23.20
2019-04-07T05:22:23.426Z,27.77
2019-04-07T05:27:29.339Z,27.87
2019-04-07T05:32:34.543Z,28.50
2019-04-07T05:37:40.569Z,29.60
2019-04-07T05:42:46.528Z,26.20
2019-04-07T05:47:53.344Z,26.33
2019-04-07T05:52:58.800Z,27.20
2019-04-07T05:58:07.019Z,26.47
2019-04-07T06:03:11.234Z,27.97
2019-04-07T06:08:24.650Z,30.17
2019-04-07T06:13:23.743Z,32.23
2019-04-07T06:18:32.637Z,31.85
2019-04-07T06:23:36.417Z,31.23
2019-04-07T06:28:41.993Z,31.30
2019-04-07T06:33:47.213Z,38.27
2019-04-07T06:38:53.682Z,32.43
2019-04-07T06:44:09.872Z,38.87
2019-04-07T06:49:15.072Z,33.80
2019-04-07T06:54:29.820Z,37.27
2019-04-07T06:59:47.141Z,37.70
2019-04-07T07:04:59.355Z,38.67
2019-04-07T07:10:28.714Z,39.67
2019-04-07T07:15:50.075Z,39.08
2019-04-07T07:21:03.738Z,40.40
2019-04-07T07:26:09.828Z,43.63
2019-04-07T07:31:16.653Z,41.83
2019-04-07T07:36:23.987Z,43.02
2019-04-07T07:41:29.427Z,44.67
2019-04-07T07:46:34.790Z,50.43
2019-04-07T07:51:45.121Z,47.13
2019-04-07T07:56:50.488Z,54.30
2019-04-07T08:01:55.567Z,50.40
2019-04-07T08:07:02.567Z,48.73
2019-04-07T08:12:08.367Z,52.10
2019-04-07T08:17:15.958Z,52.57
2019-04-07T08:22:29.950Z,54.70
2019-04-07T08:27:31.052Z,52.67
2019-04-07T08:32:37.670Z,53.83
2019-04-07T08:37:45.792Z,47.57
2019-04-07T08:42:50.224Z,47.67
2019-04-07T08:47:56.290Z,53.27
2019-04-07T08:53:10.495Z,53.70
2019-04-07T08:58:24.887Z,49.07
2019-04-07T09:03:21.973Z,44.23
2019-04-07T09:08:27.429Z,45.47
2019-04-07T09:13:34.178Z,47.10
2019-04-07T09:18:55.142Z,48.25
2019-04-07T09:24:13.805Z,51.17
2019-04-07T09:29:29.237Z,51.23
2019-04-07T09:34:42.964Z,45.70
2019-04-07T09:40:02.212Z,53.57
2019-04-07T09:45:15.984Z,44.73
2019-04-07T09:50:36.415Z,53.27
2019-04-07T09:55:50.535Z,50.47
2019-04-07T10:01:07.970Z,49.27
2019-04-07T10:06:21.984Z,48.37
2019-04-07T10:11:36.217Z,50.43
2019-04-07T10:16:50.706Z,48.10
2019-04-07T10:22:14.989Z,52.33
2019-04-07T10:27:39.698Z,45.87
2019-04-07T10:32:57.439Z,42.90
2019-04-07T10:38:15.362Z,39.43
2019-04-07T10:43:31.350Z,38.70
2019-04-07T10:48:51.089Z,39.05
2019-04-07T10:54:05.769Z,43.23
2019-04-07T10:59:30.880Z,42.57
2019-04-07T11:04:49.590Z,45.73
2019-04-07T11:10:06.666Z,35.17
2019-04-07T11:15:20.942Z,31.90
2019-04-07T11:20:35.202Z,29.72
2019-04-07T11:25:47.870Z,20.73
2019-04-07T11:31:12.262Z,17.63
2019-04-07T11:36:26.089Z,10.47
2019-04-07T11:41:40.274Z,5.40
2019-04-07T11:46:58.122Z,5.60
2019-04-07T11:52:09.286Z,3.43
2019-04-07T11:57:21.583Z,5.13
2019-04-07T12:02:36.376Z,3.10
2019-04-07T12:07:53.918Z,4.47
2019-04-07T12:13:04.802Z,4.77
2019-04-07T12:18:20.232Z,5.73
2019-04-07T12:23:34.033Z,5.23
2019-04-07T12:28:51.443Z,6.00
2019-04-07T12:34:12.021Z,4.00
2019-04-07T12:39:23.110Z,3.60
2019-04-07T12:44:37.393Z,4.47
2019-04-07T12:49:56.159Z,5.83
2019-04-07T12:55:15.389Z,2.17
2019-04-07T13:00:27.629Z,3.47
2019-04-07T13:05:41.186Z,3.25
2019-04-07T13:11:09.495Z,3.95
2019-04-07T13:16:25.082Z,3.63
2019-04-07T13:21:34.046Z,2.43
2019-04-07T13:26:48.789Z,3.90
2019-04-07T13:32:03.362Z,4.40
2019-04-07T13:37:17.303Z,6.53
2019-04-07T13:42:37.892Z,6.33
2019-04-07T13:47:52.460Z,8.13
2019-04-07T13:53:06.713Z,5.20
2019-04-07T13:58:20.850Z,6.70
2019-04-07T14:03:44.884Z,3.63
2019-04-07T14:09:01.410Z,5.07
2019-04-07T14:14:15.740Z,7.10
2019-04-07T14:19:35.355Z,5.90
2019-04-07T14:24:47.146Z,3.43
2019-04-07T14:30:00.406Z,7.77
2019-04-07T14:35:22.619Z,6.20
2019-04-07T14:40:36.664Z,6.73
2019-04-07T14:45:54.077Z,8.53
2019-04-07T14:51:18.223Z,7.33
2019-04-07T14:56:35.694Z,6.63
2019-04-07T15:01:51.320Z,7.87
2019-04-07T15:07:12.284Z,9.90
2019-04-07T15:12:25.051Z,12.33
2019-04-07T15:17:29.943Z,9.60
2019-04-07T15:22:35.734Z,8.95
2019-04-07T15:27:40.991Z,10.43
2019-04-07T15:32:46.387Z,7.77
2019-04-07T15:37:52.464Z,9.03
2019-04-07T15:43:01.486Z,6.17
2019-04-07T15:48:05.125Z,7.37
2019-04-07T15:53:13.519Z,7.03
2019-04-07T15:58:17.458Z,4.87
2019-04-07T16:03:22.923Z,4.03
2019-04-07T16:08:30.560Z,4.17
2019-04-07T16:13:35.881Z,4.20
2019-04-07T16:18:43.415Z,4.00
2019-04-07T16:23:51.886Z,4.37
2019-04-07T16:28:56.245Z,4.70
2019-04-07T16:34:05.730Z,4.97
2019-04-07T16:39:09.846Z,8.40
2019-04-07T16:44:15.905Z,3.00
2019-04-07T16:49:21.660Z,3.83
2019-04-07T16:54:27.218Z,2.90
2019-04-07T16:59:32.798Z,5.70
2019-04-07T17:04:38.513Z,2.95
2019-04-07T17:09:44.681Z,2.90
2019-04-07T17:14:52.132Z,3.83
2019-04-07T17:19:59.488Z,2.67
2019-04-07T17:25:08.647Z,3.10
2019-04-07T17:30:14.923Z,5.70
2019-04-07T17:35:24.465Z,3.00
2019-04-07T17:40:33.198Z,3.10
2019-04-07T17:45:47.908Z,4.17
2019-04-07T17:51:12.102Z,2.40
2019-04-07T17:56:29.908Z,2.70
2019-04-07T18:01:44.327Z,3.72
2019-04-07T18:07:01.946Z,2.90
2019-04-07T18:12:14.556Z,4.50
2019-04-07T18:17:28.017Z,3.70
2019-04-07T18:22:46.024Z,5.70
2019-04-07T18:28:07.024Z,4.47
2019-04-07T18:33:22.884Z,4.13
2019-04-07T18:38:48.417Z,4.27
2019-04-07T18:44:05.624Z,4.83
2019-04-07T18:49:17.021Z,6.13
2019-04-07T18:54:32.370Z,8.30
2019-04-07T18:59:47.407Z,8.23
2019-04-07T19:05:01.702Z,9.50
2019-04-07T19:10:21.361Z,8.67
2019-04-07T19:15:30.678Z,8.50
2019-04-07T19:20:44.023Z,9.03
2019-04-07T19:32:25.906Z,10.67
2019-04-07T19:37:40.683Z,10.33
2019-04-07T19:42:52.431Z,11.70
2019-04-07T19:48:10.084Z,12.73
2019-04-07T19:53:27.400Z,13.10
2019-04-07T19:58:41.039Z,10.63
2019-04-07T20:03:56.663Z,13.80
2019-04-07T20:09:12.258Z,12.23
2019-04-07T20:14:31.462Z,12.33
2019-04-07T20:19:45.014Z,10.68
2019-04-07T20:25:13.251Z,10.77
2019-04-07T20:30:23.329Z,10.63
2019-04-07T20:35:37.221Z,12.57
2019-04-07T20:40:56.060Z,15.30
2019-04-07T20:46:13.283Z,16.00
2019-04-07T20:51:26.462Z,15.53
2019-04-07T20:56:43.675Z,20.20
2019-04-07T21:02:03.145Z,17.83
2019-04-07T21:07:11.932Z,12.90
2019-04-07T21:12:23.505Z,14.47
2019-04-07T21:17:37.585Z,11.40
2019-04-07T21:22:49.739Z,12.83
2019-04-07T21:28:06.090Z,13.30
2019-04-07T21:33:23.771Z,13.00
2019-04-07T21:38:34.974Z,13.97
2019-04-07T21:43:48.857Z,13.55
2019-04-07T21:49:05.838Z,17.43
2019-04-07T21:54:20.058Z,16.70
2019-04-07T21:59:33.957Z,19.83
2019-04-07T22:04:50.638Z,23.87
2019-04-07T22:09:58.917Z,17.10
2019-04-07T22:15:06.522Z,16.50
2019-04-07T22:20:17.740Z,19.60
2019-04-07T22:25:29.131Z,23.33
2019-04-07T22:30:39.253Z,24.23
2019-04-07T22:35:43.977Z,19.93
2019-04-07T22:40:48.697Z,21.13
2019-04-07T22:46:04.205Z,20.90
2019-04-07T22:51:02.869Z,20.57
2019-04-07T22:56:09.063Z,22.67
2019-04-07T23:01:14.839Z,20.73
2019-04-07T23:06:21.028Z,21.17
2019-04-07T23:11:26.369Z,19.70
2019-04-07T23:16:31.710Z,24.07
2019-04-07T23:21:37.476Z,28.10
2019-04-07T23:26:42.763Z,22.27
2019-04-07T23:31:48.018Z,20.97
2019-04-07T23:36:54.069Z,23.93
2019-04-07T23:41:59.419Z,22.83
2019-04-07T23:47:04.817Z,23.67
2019-04-07T23:52:11.048Z,26.50
2019-04-07T23:57:16.502Z,21.17
